Adams, North Dakota
Current Conditions -  °F | °C
As of 8:15 PM on Sunday 25 Jan 2015 (Local Time) from KD55 Reporting Station
Overcast Overcast  
Wind Chill: 10°   Ceiling: 500
Heat Index: 25°   Visibility: 8mi
Dew Point: 23°   Wind: 22mph
Humidity: 93%   Direction: 210°SSW
Pressure: 29.72"   Gusts: NA
Location:  48.42°N, 98.08°W
Report Text: KD55 260215Z AUTO 21019KT 8SM OVC005 M04/M05 A2972 RMK AO2
Loading
Personal Weather Stations






























Interactive Weather Map New forecast layout! Learn more

10-Day Weather Forecast

Advertisements
Track Severe Weather on mobile